createdAt,value
2023-05-08T00:01:33.750Z,15.43
2023-05-08T00:07:40.508Z,12.55
2023-05-08T00:10:43.784Z,14.05
2023-05-08T00:13:46.996Z,12.90
2023-05-08T00:16:50.463Z,10.85
2023-05-08T00:19:53.891Z,8.70
2023-05-08T00:22:58.534Z,9.98
2023-05-08T00:26:02.124Z,10.65
2023-05-08T00:29:06.739Z,6.55
2023-05-08T00:32:10.666Z,8.50
2023-05-08T00:35:14.019Z,15.52
2023-05-08T00:38:17.327Z,11.40
2023-05-08T00:41:20.651Z,6.55
2023-05-08T00:44:24.167Z,17.42
2023-05-08T00:47:27.574Z,5.95
2023-05-08T00:50:32.342Z,5.72
2023-05-08T00:53:39.376Z,4.72
2023-05-08T00:56:43.683Z,4.40
2023-05-08T00:59:47.943Z,4.63
2023-05-08T01:02:51.650Z,5.00
2023-05-08T01:05:55.641Z,5.45
2023-05-08T01:08:59.229Z,9.18
2023-05-08T01:12:08.683Z,5.65
2023-05-08T01:15:33.780Z,9.77
2023-05-08T01:19:02.666Z,5.55
2023-05-08T01:22:24.478Z,8.15
2023-05-08T01:25:42.669Z,3.63
2023-05-08T01:29:16.984Z,9.15
2023-05-08T01:32:57.564Z,3.83
2023-05-08T01:36:13.715Z,5.60
2023-05-08T01:39:48.367Z,3.95
2023-05-08T01:43:19.488Z,3.42
2023-05-08T01:46:28.001Z,9.82
2023-05-08T01:49:37.999Z,5.22
2023-05-08T01:52:52.486Z,3.45
2023-05-08T01:56:04.510Z,6.97
2023-05-08T01:59:09.209Z,2.05
2023-05-08T02:02:35.718Z,3.35
2023-05-08T02:05:39.816Z,4.38
2023-05-08T02:08:45.015Z,2.40
2023-05-08T02:11:48.551Z,3.80
2023-05-08T02:14:55.271Z,5.10
2023-05-08T02:17:59.940Z,4.35
2023-05-08T02:21:05.625Z,2.85
2023-05-08T02:24:10.207Z,3.78
2023-05-08T02:27:14.396Z,2.55
2023-05-08T02:30:19.245Z,9.90
2023-05-08T02:33:23.834Z,3.10
2023-05-08T02:36:30.400Z,12.32
2023-05-08T02:39:37.475Z,4.07
2023-05-08T02:42:41.404Z,7.25
2023-05-08T02:46:11.682Z,6.75
2023-05-08T02:49:35.296Z,4.28
2023-05-08T02:52:49.624Z,6.13
2023-05-08T02:56:01.132Z,8.27
2023-05-08T02:59:27.073Z,3.75
2023-05-08T03:02:43.691Z,8.65
2023-05-08T03:05:56.851Z,4.40
2023-05-08T03:09:02.677Z,7.60
2023-05-08T03:12:11.989Z,5.50
2023-05-08T03:15:24.828Z,18.27
2023-05-08T03:18:34.607Z,5.47
2023-05-08T03:21:41.879Z,5.10
2023-05-08T03:24:48.023Z,5.68
2023-05-08T03:27:53.065Z,6.22
2023-05-08T03:30:58.011Z,10.95
2023-05-08T03:34:01.906Z,10.07
2023-05-08T03:37:05.765Z,11.80
2023-05-08T03:40:11.226Z,11.10
2023-05-08T03:43:16.983Z,5.20
2023-05-08T03:46:21.933Z,5.85
2023-05-08T03:49:27.635Z,6.35
2023-05-08T03:52:33.980Z,6.93
2023-05-08T03:55:37.930Z,4.38
2023-05-08T03:58:57.847Z,13.18
2023-05-08T04:02:22.318Z,6.95
2023-05-08T04:05:50.390Z,3.90
2023-05-08T04:09:37.436Z,6.95
2023-05-08T04:13:07.598Z,6.60
2023-05-08T04:16:41.227Z,8.60
2023-05-08T04:19:48.188Z,17.65
2023-05-08T04:22:54.582Z,9.15
2023-05-08T04:26:02.169Z,9.05
2023-05-08T04:29:07.503Z,4.47
2023-05-08T04:32:12.711Z,7.68
2023-05-08T04:35:17.396Z,3.35
2023-05-08T04:38:21.667Z,9.60
2023-05-08T04:41:48.370Z,3.83
2023-05-08T04:44:58.220Z,1.48
2023-05-08T04:48:01.917Z,3.15
2023-05-08T04:51:05.497Z,10.68
2023-05-08T04:54:09.447Z,5.00
2023-05-08T04:57:13.047Z,6.85
2023-05-08T05:00:17.247Z,1.88
2023-05-08T05:03:22.762Z,3.70
2023-05-08T05:06:26.387Z,2.80
2023-05-08T05:09:30.489Z,2.35
2023-05-08T05:12:38.767Z,6.03
2023-05-08T05:15:45.686Z,1.95
2023-05-08T05:18:52.068Z,4.53
2023-05-08T05:21:55.722Z,2.33
2023-05-08T05:25:02.509Z,4.53
2023-05-08T05:28:06.164Z,1.30
2023-05-08T05:31:09.688Z,2.83
2023-05-08T05:34:14.167Z,4.22
2023-05-08T05:37:24.817Z,3.15
2023-05-08T05:40:31.439Z,2.05
2023-05-08T05:43:34.979Z,6.25
2023-05-08T05:46:44.108Z,1.63
2023-05-08T05:50:00.753Z,6.20
2023-05-08T05:53:07.218Z,6.53
2023-05-08T05:56:12.655Z,5.70
2023-05-08T05:59:16.098Z,2.80
2023-05-08T06:02:21.203Z,8.07
2023-05-08T06:05:25.303Z,3.40
2023-05-08T06:08:53.377Z,7.53
2023-05-08T06:12:00.764Z,3.35
2023-05-08T06:15:05.548Z,7.53
2023-05-08T06:18:12.013Z,3.30
2023-05-08T06:21:15.359Z,2.42
2023-05-08T06:24:22.116Z,2.72
2023-05-08T06:27:25.956Z,2.70
2023-05-08T06:30:29.263Z,2.45
2023-05-08T06:33:32.712Z,3.28
2023-05-08T06:36:45.341Z,2.17
2023-05-08T06:39:52.465Z,1.13
2023-05-08T06:46:24.815Z,2.78
2023-05-08T06:49:31.698Z,3.17
2023-05-08T06:52:38.100Z,3.58
2023-05-08T06:55:46.005Z,3.58
2023-05-08T06:58:56.935Z,3.60
2023-05-08T07:02:12.223Z,5.05
2023-05-08T07:05:16.505Z,3.50
2023-05-08T07:08:20.056Z,4.95
2023-05-08T07:11:24.020Z,2.40
2023-05-08T07:14:28.337Z,2.95
2023-05-08T07:17:33.329Z,2.20
2023-05-08T07:21:01.581Z,5.95
2023-05-08T07:24:05.284Z,1.98
2023-05-08T07:27:33.483Z,3.55
2023-05-08T07:30:38.645Z,3.10
2023-05-08T07:33:44.935Z,3.00
2023-05-08T07:36:50.646Z,2.90
2023-05-08T07:39:54.427Z,7.30
2023-05-08T07:43:00.488Z,2.25
2023-05-08T07:46:09.936Z,6.80
2023-05-08T07:49:13.277Z,5.00
2023-05-08T07:52:23.102Z,3.63
2023-05-08T07:55:32.248Z,4.00
2023-05-08T07:58:38.426Z,9.48
2023-05-08T08:01:48.179Z,5.47
2023-05-08T08:04:51.753Z,4.35
2023-05-08T08:07:55.698Z,2.58
2023-05-08T08:11:03.792Z,4.65
2023-05-08T08:14:10.602Z,1.80
2023-05-08T08:17:14.616Z,4.00
2023-05-08T08:20:18.313Z,2.83
2023-05-08T08:23:21.873Z,2.95
2023-05-08T08:26:26.109Z,8.52
2023-05-08T08:29:32.251Z,3.03
2023-05-08T08:32:36.687Z,7.32
2023-05-08T08:35:40.067Z,3.20
2023-05-08T08:38:57.121Z,3.05
2023-05-08T08:42:00.501Z,4.32
2023-05-08T08:45:04.013Z,5.93
2023-05-08T08:48:14.541Z,3.63
2023-05-08T08:51:32.071Z,6.55
2023-05-08T08:54:36.936Z,9.43
2023-05-08T08:57:51.654Z,4.70
2023-05-08T09:00:56.819Z,2.58
2023-05-08T09:04:00.635Z,6.65
2023-05-08T09:07:08.212Z,3.30
2023-05-08T09:10:16.462Z,1.95
2023-05-08T09:13:44.927Z,6.22
2023-05-08T09:16:48.374Z,6.43
2023-05-08T09:19:53.569Z,6.45
2023-05-08T09:23:03.972Z,4.50
2023-05-08T09:26:10.490Z,5.53
2023-05-08T09:29:23.635Z,2.88
2023-05-08T09:32:34.470Z,1.77
2023-05-08T09:35:38.427Z,3.08
2023-05-08T09:38:44.315Z,6.38
2023-05-08T09:42:04.163Z,3.42
2023-05-08T09:45:11.417Z,4.57
2023-05-08T09:48:15.165Z,4.30
2023-05-08T09:51:55.232Z,5.88
2023-05-08T09:55:10.262Z,7.38
2023-05-08T09:58:41.665Z,5.35
2023-05-08T10:01:51.695Z,12.10
2023-05-08T10:04:55.258Z,5.20
2023-05-08T10:08:00.047Z,3.97
2023-05-08T10:11:19.209Z,6.07
2023-05-08T10:14:25.727Z,5.07
2023-05-08T10:22:12.114Z,1.55
2023-05-08T10:25:59.751Z,2.78
2023-05-08T10:29:09.771Z,4.25
2023-05-08T10:32:27.956Z,9.48
2023-05-08T10:35:38.426Z,4.82
2023-05-08T10:38:45.957Z,5.20
2023-05-08T10:41:51.074Z,3.40
2023-05-08T10:44:59.052Z,5.35
2023-05-08T10:48:09.895Z,4.40
2023-05-08T10:51:51.077Z,4.78
2023-05-08T10:55:19.647Z,4.53
2023-05-08T10:58:39.957Z,7.97
2023-05-08T11:02:09.200Z,3.78
2023-05-08T11:05:19.955Z,7.05
2023-05-08T11:08:28.107Z,6.82
2023-05-08T11:11:36.729Z,4.88
2023-05-08T11:14:43.969Z,4.70
2023-05-08T11:17:55.936Z,6.93
2023-05-08T11:21:07.334Z,3.30
2023-05-08T11:24:17.348Z,5.30
2023-05-08T11:27:39.276Z,8.25
2023-05-08T11:30:45.681Z,7.72
2023-05-08T11:33:49.105Z,10.13
2023-05-08T11:37:04.596Z,5.80
2023-05-08T11:40:46.046Z,8.40
2023-05-08T11:44:09.754Z,14.60
2023-05-08T11:47:19.504Z,14.20
2023-05-08T11:50:23.033Z,11.00
2023-05-08T11:53:31.122Z,13.05
2023-05-08T11:56:34.526Z,9.52
2023-05-08T11:59:38.286Z,8.95
2023-05-08T12:02:47.917Z,7.25
2023-05-08T12:05:56.918Z,10.70
2023-05-08T12:09:25.417Z,8.63
2023-05-08T12:12:39.581Z,8.57
2023-05-08T12:15:42.978Z,20.98
2023-05-08T12:18:52.281Z,20.48
2023-05-08T12:21:58.650Z,26.10
2023-05-08T12:25:04.135Z,28.30
2023-05-08T12:28:35.017Z,23.10
2023-05-08T12:34:45.696Z,22.25
2023-05-08T12:37:51.737Z,28.00
2023-05-08T12:40:58.222Z,29.77
2023-05-08T12:44:07.099Z,26.77
2023-05-08T12:47:13.332Z,19.15
2023-05-08T12:50:18.382Z,17.23
2023-05-08T12:53:47.049Z,20.52
2023-05-08T12:56:51.214Z,18.05
2023-05-08T13:00:07.422Z,24.88
2023-05-08T13:03:15.604Z,27.17
2023-05-08T13:06:35.044Z,22.73
2023-05-08T13:10:05.476Z,22.25
2023-05-08T13:13:08.932Z,24.10
2023-05-08T13:16:15.170Z,20.92
2023-05-08T13:19:19.669Z,25.60
2023-05-08T13:22:27.121Z,22.63
2023-05-08T13:25:34.291Z,23.95
2023-05-08T13:28:37.616Z,25.92
2023-05-08T13:31:40.969Z,24.90
2023-05-08T13:34:50.445Z,25.35
2023-05-08T13:37:59.878Z,20.80
2023-05-08T13:41:06.236Z,28.92
2023-05-08T13:44:09.710Z,24.55
2023-05-08T13:47:13.198Z,25.15
2023-05-08T13:50:19.131Z,23.95
2023-05-08T13:53:25.352Z,28.55
2023-05-08T13:56:33.955Z,24.25
2023-05-08T13:59:40.433Z,29.27
2023-05-08T14:02:48.313Z,16.10
2023-05-08T14:05:54.200Z,18.55
2023-05-08T14:08:59.268Z,21.67
2023-05-08T14:12:02.704Z,20.00
2023-05-08T14:15:06.524Z,18.00
2023-05-08T14:18:09.984Z,15.85
2023-05-08T14:21:16.144Z,18.15
2023-05-08T14:24:19.462Z,14.23
2023-05-08T14:27:23.016Z,16.40
2023-05-08T14:30:26.516Z,18.30
2023-05-08T14:33:29.968Z,10.55
2023-05-08T14:36:33.480Z,14.95
2023-05-08T14:39:36.913Z,17.95
2023-05-08T14:42:40.327Z,20.60
2023-05-08T14:45:43.721Z,18.70
2023-05-08T14:48:47.075Z,16.75
2023-05-08T14:51:53.317Z,13.27
2023-05-08T14:54:56.831Z,13.73
2023-05-08T14:58:00.294Z,16.25
2023-05-08T15:01:07.335Z,15.18
2023-05-08T15:04:37.995Z,11.23
2023-05-08T15:07:42.314Z,11.48
2023-05-08T15:10:45.886Z,10.25
2023-05-08T15:13:49.414Z,12.98
2023-05-08T15:16:52.829Z,15.05
2023-05-08T15:19:56.360Z,15.13
2023-05-08T15:22:59.727Z,14.13
2023-05-08T15:26:04.315Z,16.77
2023-05-08T15:29:07.694Z,13.95
2023-05-08T15:32:11.121Z,16.30
2023-05-08T15:35:14.879Z,14.32
2023-05-08T15:38:18.370Z,15.95
2023-05-08T15:41:22.621Z,14.38
2023-05-08T15:44:28.779Z,18.02
2023-05-08T15:47:37.728Z,19.33
2023-05-08T15:50:41.522Z,22.98
2023-05-08T15:53:44.902Z,21.92
2023-05-08T15:56:48.221Z,26.55
2023-05-08T15:59:51.567Z,24.52
2023-05-08T16:02:55.077Z,22.00
2023-05-08T16:06:24.113Z,28.00
2023-05-08T16:09:27.782Z,25.25
2023-05-08T16:12:34.275Z,33.15
2023-05-08T16:16:06.836Z,22.33
2023-05-08T16:19:10.425Z,20.38
2023-05-08T16:22:41.513Z,27.52
2023-05-08T16:28:53.942Z,23.02
2023-05-08T16:32:47.083Z,23.00
2023-05-08T16:35:50.535Z,27.17
2023-05-08T16:42:12.069Z,20.92
2023-05-08T16:45:15.577Z,18.85
2023-05-08T16:48:19.422Z,25.42
2023-05-08T16:51:22.699Z,20.60
2023-05-08T16:54:26.060Z,25.50
2023-05-08T16:57:29.399Z,19.55
2023-05-08T17:00:32.640Z,15.05
2023-05-08T17:03:36.512Z,22.17
2023-05-08T17:06:43.350Z,17.88
2023-05-08T17:09:48.991Z,12.75
2023-05-08T17:12:58.332Z,17.52
2023-05-08T17:16:03.089Z,8.93
2023-05-08T17:19:06.382Z,10.75
2023-05-08T17:22:10.058Z,12.70
2023-05-08T17:25:13.410Z,13.00
2023-05-08T17:28:16.761Z,24.27
2023-05-08T17:31:20.503Z,25.15
2023-05-08T17:34:24.012Z,23.35
2023-05-08T17:37:27.309Z,24.13
2023-05-08T17:40:30.776Z,23.15
2023-05-08T17:43:35.993Z,22.38
2023-05-08T17:46:39.390Z,21.90
2023-05-08T17:49:45.617Z,18.25
2023-05-08T17:52:48.985Z,29.58
2023-05-08T17:55:52.827Z,13.57
2023-05-08T17:58:56.866Z,13.15
2023-05-08T18:02:00.330Z,13.38
2023-05-08T18:05:03.755Z,11.93
2023-05-08T18:08:07.161Z,13.57
2023-05-08T18:11:36.847Z,19.15
2023-05-08T18:14:40.185Z,38.88
2023-05-08T18:17:43.578Z,17.45
2023-05-08T18:20:46.922Z,13.70
2023-05-08T18:23:50.327Z,14.25
2023-05-08T18:26:53.619Z,8.65
2023-05-08T18:30:02.941Z,11.30
2023-05-08T18:33:06.299Z,16.13
2023-05-08T18:36:09.608Z,13.02
2023-05-08T18:39:12.981Z,10.13
2023-05-08T18:42:16.373Z,8.00
2023-05-08T18:45:19.972Z,14.32
2023-05-08T18:48:23.356Z,10.82
2023-05-08T18:51:26.754Z,15.13
2023-05-08T18:54:30.156Z,11.88
2023-05-08T18:57:33.556Z,13.98
2023-05-08T19:00:40.188Z,10.60
2023-05-08T19:03:43.538Z,14.80
2023-05-08T19:06:47.170Z,16.80
2023-05-08T19:09:50.579Z,13.60
2023-05-08T19:12:54.006Z,13.48
2023-05-08T19:15:57.416Z,9.40
2023-05-08T19:19:00.720Z,10.20
2023-05-08T19:22:04.052Z,8.98
2023-05-08T19:25:07.527Z,11.70
2023-05-08T19:28:10.801Z,12.93
2023-05-08T19:31:14.095Z,9.20
2023-05-08T19:34:17.713Z,15.68
2023-05-08T19:37:21.015Z,11.50
2023-05-08T19:40:24.465Z,11.35
2023-05-08T19:43:27.990Z,20.83
2023-05-08T19:46:31.670Z,11.85
2023-05-08T19:49:35.124Z,9.45
2023-05-08T19:52:38.466Z,11.70
2023-05-08T19:55:41.865Z,10.13
2023-05-08T19:58:45.176Z,12.23
2023-05-08T20:01:48.512Z,8.98
2023-05-08T20:05:14.333Z,8.70
2023-05-08T20:08:15.155Z,9.55
2023-05-08T20:11:18.457Z,9.63
2023-05-08T20:14:21.907Z,20.92
2023-05-08T20:17:25.341Z,27.13
2023-05-08T20:20:30.361Z,24.92
2023-05-08T20:23:33.680Z,21.45
2023-05-08T20:26:37.053Z,20.23
2023-05-08T20:29:40.389Z,21.25
2023-05-08T20:32:43.672Z,20.85
2023-05-08T20:35:47.171Z,22.90
2023-05-08T20:38:50.438Z,18.67
2023-05-08T20:41:53.791Z,25.92
2023-05-08T20:44:57.088Z,28.40
2023-05-08T20:48:00.441Z,18.35
2023-05-08T20:51:03.798Z,21.27
2023-05-08T20:54:07.220Z,22.13
2023-05-08T20:57:10.739Z,17.00
2023-05-08T21:00:14.624Z,12.98
2023-05-08T21:03:18.058Z,24.75
2023-05-08T21:06:21.625Z,18.17
2023-05-08T21:09:25.274Z,16.55
2023-05-08T21:12:28.739Z,15.90
2023-05-08T21:15:32.566Z,14.63
2023-05-08T21:18:35.930Z,9.95
2023-05-08T21:21:39.246Z,17.05
2023-05-08T21:24:45.633Z,16.80
2023-05-08T21:27:48.990Z,21.48
2023-05-08T21:30:52.476Z,24.42
2023-05-08T21:33:55.883Z,48.10
2023-05-08T21:36:59.351Z,41.50
2023-05-08T21:40:04.898Z,43.50
2023-05-08T21:43:08.357Z,36.42
2023-05-08T21:46:37.003Z,34.45
2023-05-08T21:49:58.057Z,27.83
2023-05-08T21:53:05.015Z,37.15
2023-05-08T21:56:08.413Z,23.30
2023-05-08T21:59:11.689Z,32.30
2023-05-08T22:02:20.704Z,19.02
2023-05-08T22:05:28.612Z,19.45
2023-05-08T22:08:32.006Z,18.83
2023-05-08T22:11:35.395Z,19.23
2023-05-08T22:14:38.672Z,23.55
2023-05-08T22:17:42.427Z,18.20
2023-05-08T22:20:45.892Z,22.63
2023-05-08T22:23:52.297Z,19.85
2023-05-08T22:26:55.627Z,26.85
2023-05-08T22:30:00.949Z,15.75
2023-05-08T22:33:04.435Z,18.77
2023-05-08T22:36:11.649Z,17.10
2023-05-08T22:42:33.482Z,17.98
2023-05-08T22:45:37.252Z,19.15
2023-05-08T22:48:40.633Z,18.30
2023-05-08T22:51:43.930Z,20.73
2023-05-08T22:54:47.359Z,23.45
2023-05-08T22:57:50.726Z,27.70
2023-05-08T23:00:54.615Z,34.22
2023-05-08T23:04:02.248Z,30.52
2023-05-08T23:07:05.594Z,23.23
2023-05-08T23:10:09.464Z,28.63
2023-05-08T23:13:13.159Z,24.75
2023-05-08T23:16:16.479Z,41.65
2023-05-08T23:19:19.988Z,33.15
2023-05-08T23:22:23.342Z,46.13
2023-05-08T23:25:26.778Z,28.45
2023-05-08T23:28:30.262Z,34.15
2023-05-08T23:31:33.854Z,26.33
2023-05-08T23:34:37.151Z,26.00
2023-05-08T23:37:40.446Z,28.63
2023-05-08T23:40:44.290Z,24.55
2023-05-08T23:43:47.834Z,27.17
2023-05-08T23:46:52.382Z,18.02
2023-05-08T23:49:55.874Z,15.82
2023-05-08T23:53:00.949Z,24.30
2023-05-08T23:56:04.306Z,20.60
2023-05-08T23:59:07.846Z,15.32
